METAR Data
IDs: Format: Raw Decoded Include TAF

Data at: 1457 UTC 18 Aug 2019

METAR for:KTVY (Tooele Valley Arpt, UT, US)
Text:KTVY 181455Z AUTO 00000KT 10SM CLR 24/07 A3001 RMK AO2
Temperature: 24.0°C ( 75°F)
Dewpoint: 7.0°C ( 45°F) [RH = 34%]
Pressure (altimeter):30.01 inches Hg (1016.3 mb)
Winds:calm
Visibility:10 or more sm (16+ km)
Ceiling:at least 12,000 feet AGL
Clouds:sky clear below 12,000 feet AGL
QC Flag:automated observation with no human augmentation
Text:KTVY 181435Z AUTO 21004KT 10SM CLR 22/05 A3001 RMK AO2
Temperature: 22.0°C ( 72°F)
Dewpoint: 5.0°C ( 41°F) [RH = 33%]
Pressure (altimeter):30.01 inches Hg (1016.3 mb)
Winds:from the SSW (210 degrees) at 5 MPH (4 knots; 2.1 m/s)
Visibility:10 or more sm (16+ km)
Ceiling:at least 12,000 feet AGL
Clouds:sky clear below 12,000 feet AGL
QC Flag:automated observation with no human augmentation
Text:KTVY 181415Z AUTO 18006KT 10SM CLR 21/05 A3000 RMK AO2
Temperature: 21.0°C ( 70°F)
Dewpoint: 5.0°C ( 41°F) [RH = 35%]
Pressure (altimeter):30.00 inches Hg (1016.0 mb)
Winds:from the S (180 degrees) at 7 MPH (6 knots; 3.1 m/s)
Visibility:10 or more sm (16+ km)
Ceiling:at least 12,000 feet AGL
Clouds:sky clear below 12,000 feet AGL
QC Flag:automated observation with no human augmentation
Text:KTVY 181355Z AUTO 18007KT 10SM CLR 18/04 A2999 RMK AO2
Temperature: 18.0°C ( 64°F)
Dewpoint: 4.0°C ( 39°F) [RH = 39%]
Pressure (altimeter):29.99 inches Hg (1015.7 mb)
Winds:from the S (180 degrees) at 8 MPH (7 knots; 3.6 m/s)
Visibility:10 or more sm (16+ km)
Ceiling:at least 12,000 feet AGL
Clouds:sky clear below 12,000 feet AGL
QC Flag:automated observation with no human augmentation
Text:KTVY 181335Z AUTO 18009KT 10SM CLR 17/04 A2999 RMK AO2
Temperature: 17.0°C ( 63°F)
Dewpoint: 4.0°C ( 39°F) [RH = 42%]
Pressure (altimeter):29.99 inches Hg (1015.7 mb)
Winds:from the S (180 degrees) at 10 MPH (9 knots; 4.6 m/s)
Visibility:10 or more sm (16+ km)
Ceiling:at least 12,000 feet AGL
Clouds:sky clear below 12,000 feet AGL
QC Flag:automated observation with no human augmentation
Text:KTVY 181315Z AUTO 19007KT 10SM CLR 15/05 A2998 RMK AO2
Temperature: 15.0°C ( 59°F)
Dewpoint: 5.0°C ( 41°F) [RH = 51%]
Pressure (altimeter):29.98 inches Hg (1015.3 mb)
Winds:from the S (190 degrees) at 8 MPH (7 knots; 3.6 m/s)
Visibility:10 or more sm (16+ km)
Ceiling:at least 12,000 feet AGL
Clouds:sky clear below 12,000 feet AGL
QC Flag:automated observation with no human augmentation
Text:KTVY 181255Z AUTO 19007KT 10SM CLR 14/06 A2997 RMK AO2
Temperature: 14.0°C ( 57°F)
Dewpoint: 6.0°C ( 43°F) [RH = 58%]
Pressure (altimeter):29.97 inches Hg (1015.0 mb)
Winds:from the S (190 degrees) at 8 MPH (7 knots; 3.6 m/s)
Visibility:10 or more sm (16+ km)
Ceiling:at least 12,000 feet AGL
Clouds:sky clear below 12,000 feet AGL
QC Flag:automated observation with no human augmentation
Text:KTVY 181235Z AUTO 18007KT 10SM CLR 14/06 A2997 RMK AO2
Temperature: 14.0°C ( 57°F)
Dewpoint: 6.0°C ( 43°F) [RH = 58%]
Pressure (altimeter):29.97 inches Hg (1015.0 mb)
Winds:from the S (180 degrees) at 8 MPH (7 knots; 3.6 m/s)
Visibility:10 or more sm (16+ km)
Ceiling:at least 12,000 feet AGL
Clouds:sky clear below 12,000 feet AGL
QC Flag:automated observation with no human augmentation
Text:KTVY 181215Z AUTO 19005KT 10SM CLR 15/05 A2997 RMK AO2
Temperature: 15.0°C ( 59°F)
Dewpoint: 5.0°C ( 41°F) [RH = 51%]
Pressure (altimeter):29.97 inches Hg (1015.0 mb)
Winds:from the S (190 degrees) at 6 MPH (5 knots; 2.6 m/s)
Visibility:10 or more sm (16+ km)
Ceiling:at least 12,000 feet AGL
Clouds:sky clear below 12,000 feet AGL
QC Flag:automated observation with no human augmentation
Text:KTVY 181155Z AUTO 18008KT 10SM CLR 12/04 A2996 RMK AO2
Temperature: 12.0°C ( 54°F)
Dewpoint: 4.0°C ( 39°F) [RH = 58%]
Pressure (altimeter):29.96 inches Hg (1014.6 mb)
Winds:from the S (180 degrees) at 9 MPH (8 knots; 4.1 m/s)
Visibility:10 or more sm (16+ km)
Ceiling:at least 12,000 feet AGL
Clouds:sky clear below 12,000 feet AGL
QC Flag:automated observation with no human augmentation
Text:KTVY 181135Z AUTO 18004KT 10SM CLR 13/04 A2995 RMK AO2
Temperature: 13.0°C ( 55°F)
Dewpoint: 4.0°C ( 39°F) [RH = 54%]
Pressure (altimeter):29.95 inches Hg (1014.3 mb)
Winds:from the S (180 degrees) at 5 MPH (4 knots; 2.1 m/s)
Visibility:10 or more sm (16+ km)
Ceiling:at least 12,000 feet AGL
Clouds:sky clear below 12,000 feet AGL
QC Flag:automated observation with no human augmentation
Text:KTVY 181115Z AUTO 17004KT 10SM CLR 14/04 A2995 RMK AO2
Temperature: 14.0°C ( 57°F)
Dewpoint: 4.0°C ( 39°F) [RH = 51%]
Pressure (altimeter):29.95 inches Hg (1014.3 mb)
Winds:from the S (170 degrees) at 5 MPH (4 knots; 2.1 m/s)
Visibility:10 or more sm (16+ km)
Ceiling:at least 12,000 feet AGL
Clouds:sky clear below 12,000 feet AGL
QC Flag:automated observation with no human augmentation
Text:KTVY 181055Z AUTO 17005KT 10SM CLR 14/05 A2995 RMK AO2
Temperature: 14.0°C ( 57°F)
Dewpoint: 5.0°C ( 41°F) [RH = 55%]
Pressure (altimeter):29.95 inches Hg (1014.3 mb)
Winds:from the S (170 degrees) at 6 MPH (5 knots; 2.6 m/s)
Visibility:10 or more sm (16+ km)
Ceiling:at least 12,000 feet AGL
Clouds:sky clear below 12,000 feet AGL
QC Flag:automated observation with no human augmentation
Text:KTVY 181035Z AUTO 18005KT 10SM CLR 15/06 A2995 RMK AO2
Temperature: 15.0°C ( 59°F)
Dewpoint: 6.0°C ( 43°F) [RH = 55%]
Pressure (altimeter):29.95 inches Hg (1014.3 mb)
Winds:from the S (180 degrees) at 6 MPH (5 knots; 2.6 m/s)
Visibility:10 or more sm (16+ km)
Ceiling:at least 12,000 feet AGL
Clouds:sky clear below 12,000 feet AGL
QC Flag:automated observation with no human augmentation
Text:KTVY 181015Z AUTO 19006KT 10SM CLR 16/05 A2994 RMK AO2
Temperature: 16.0°C ( 61°F)
Dewpoint: 5.0°C ( 41°F) [RH = 48%]
Pressure (altimeter):29.94 inches Hg (1014.0 mb)
Winds:from the S (190 degrees) at 7 MPH (6 knots; 3.1 m/s)
Visibility:10 or more sm (16+ km)
Ceiling:at least 12,000 feet AGL
Clouds:sky clear below 12,000 feet AGL
QC Flag:automated observation with no human augmentation